Norwegian Epic — C6XP7 — position and weather

sailwx.info

Track history (hours):
 
Tides and Currents Weather Stations Pressure Air Temp Water Temp Dewpoint Dewpoint Depression Visibility Wind Speed Wind Dir Waves Ship Positions

Norwegian Epic

Last reported at 2016-May-06 03:33 UTC. Time now 2016-May-06 03:38 UTC.
Position N 43°28' E 007°20'.

Length 329 m; draft 9.3 m.

Type: Passenger vessel. MMSI: 311018500.

Date/timePositionNaut miles runAvg speedWind from/ knotsBaromVisibWave heightAir tempDewpointWater temp
2016-May-06 03:33N 43°28' E 007°20'1211.7
2016-May-06 02:33N 43°29' E 007°36'1212.1
2016-May-06 01:33N 43°29' E 007°52'1212.0
2016-May-06 00:34N 43°29' E 008°09'1211.9
2016-May-05 23:33N 43°30' E 008°25'1212.0
2016-May-05 22:33N 43°30' E 008°42'1212.5
2016-May-05 21:34N 43°30' E 008°59'1313.0
2016-May-05 20:33N 43°31' E 009°17'1313.5
2016-May-05 19:34N 43°32' E 009°35'1717.0
2016-May-05 18:34N 43°31' E 009°59'1312.8
2016-May-05 17:33N 43°32' E 010°16'2 1.5
2016-May-05 16:30N 43°33' E 010°18'0 0.0
2016-May-05 15:31N 43°33' E 010°18'0 0.0
2016-May-05 14:32N 43°33' E 010°18'0 0.0
2016-May-05 13:32N 43°33' E 010°18'0 0.0
2016-May-05 12:33N 43°33' E 010°18'0 0.0
2016-May-05 11:25N 43°33' E 010°18'0 0.0
2016-May-05 10:31N 43°33' E 010°18'0 0.0
2016-May-05 09:32N 43°33' E 010°18'0 0.0
2016-May-05 08:33N 43°33' E 010°18'0 0.0
2016-May-05 07:33N 43°33' E 010°18'0 0.0
2016-May-05 06:31N 43°33' E 010°18'0 0.0
2016-May-05 05:32N 43°33' E 010°18'0 0.2
2016-May-05 04:33N 43°33' E 010°18'7 7.2
2016-May-05 03:33N 43°27' E 010°12'1313.0
2016-May-05 02:33N 43°15' E 010°08'1716.6
2016-May-05 01:34N 42°59' E 010°02'1717.0
2016-May-05 00:33N 42°43' E 009°55'1815.2
2016-May-04 23:22N 42°25' E 009°56'1315.8
2016-May-04 22:33N 42°14' E 010°06'1817.2
2016-May-04 21:30N 42°07' E 010°28'  
2016-May-01 21:29N 41°16' E 003°39'1516.2
2016-May-01 20:33N 41°16' E 003°19'1616.1
2016-May-01 19:33N 41°16' E 002°58'1616.2
2016-May-01 18:33N 41°16' E 002°37'1515.1
2016-May-01 17:33N 41°16' E 002°16'7 7.4
2016-May-01 16:33N 41°22' E 002°11'0 0.1
2016-May-01 15:29N 41°22' E 002°11'0 0.0
2016-May-01 03:19N 41°22' E 002°11'5 5.2
2016-May-01 02:20N 41°17' E 002°11'911.1
2016-May-01 01:33N 41°19' E 002°22'16116.1
2016-Apr-30 15:33N 43°07' E 005°03'1716.5
2016-Apr-30 14:31N 43°20' E 005°18'2 0.8
2016-Apr-30 12:19N 43°21' E 005°20'0 0.0
2016-Apr-30 11:32N 43°21' E 005°20'0 0.0
2016-Apr-30 10:29N 43°21' E 005°20'0 0.0
2016-Apr-30 09:27N 43°21' E 005°20'0 0.0
2016-Apr-30 08:25N 43°21' E 005°20'0 0.0
2016-Apr-30 07:23N 43°21' E 005°20'0 0.0
2016-Apr-30 06:32N 43°21' E 005°20'0 0.0
2016-Apr-30 05:33N 43°21' E 005°20'0 0.1
2016-Apr-30 04:33N 43°21' E 005°20'6 5.8
2016-Apr-30 03:33N 43°18' E 005°13'1110.6
2016-Apr-30 02:33N 43°07' E 005°12'1612.1
2016-Apr-30 01:12N 43°01' E 005°33'1310.9
2016-Apr-30 00:00N 42°54' E 005°48'5710.0 140 / 231018.0 5.4 1.013.0 14.0
2016-Apr-29 18:20N 43°10' E 007°02'1013.0
2016-Apr-29 17:33N 43°20' E 007°01'1111.5
2016-Apr-29 16:33N 43°32' E 007°01'1 0.6
2016-Apr-29 15:33N 43°32' E 007°01'0 0.0
2016-Apr-29 14:31N 43°32' E 007°01'0 0.0
2016-Apr-29 13:28N 43°32' E 007°01'0 0.0
2016-Apr-29 12:14N 43°32' E 007°01'0 0.0
2016-Apr-29 11:33N 43°32' E 007°01'0 0.0
2016-Apr-29 10:30N 43°32' E 007°01'0 0.0
2016-Apr-29 09:13N 43°32' E 007°01'0 0.1
2016-Apr-29 08:32N 43°32' E 007°01'0 0.0
2016-Apr-29 07:26N 43°32' E 007°01'0 0.0
2016-Apr-29 06:33N 43°32' E 007°01'0 0.0
2016-Apr-29 05:31N 43°32' E 007°01'5 5.3
2016-Apr-29 04:33N 43°28' E 007°04'1312.9
2016-Apr-29 03:33N 43°28' E 007°22'1313.1
2016-Apr-29 02:33N 43°29' E 007°40'1313.0
2016-Apr-29 01:31N 43°29' E 007°59'1313.2
2016-Apr-29 00:33N 43°29' E 008°16'1313.3
2016-Apr-28 23:33N 43°30' E 008°34'1313.4
2016-Apr-28 22:33N 43°30' E 008°53'1312.9
2016-Apr-28 21:33N 43°30' E 009°11'1312.9
2016-Apr-28 20:33N 43°31' E 009°28'1313.1
2016-Apr-28 19:33N 43°31' E 009°47'1312.8
2016-Apr-28 18:33N 43°30' E 010°04'1010.0
2016-Apr-28 17:33N 43°33' E 010°18'1 0.5
2016-Apr-28 16:33N 43°33' E 010°18'0 0.0
2016-Apr-28 15:33N 43°33' E 010°18'0 0.0
2016-Apr-28 14:31N 43°33' E 010°18'0 0.0
2016-Apr-28 13:32N 43°33' E 010°18'0 0.0
2016-Apr-28 12:33N 43°33' E 010°18'0 0.0
2016-Apr-28 11:33N 43°34' E 010°18'0 0.0
2016-Apr-28 10:28N 43°33' E 010°18'0 0.0
2016-Apr-28 09:32N 43°33' E 010°18'0 0.0
2016-Apr-28 08:32N 43°33' E 010°18'0 0.0
2016-Apr-28 07:33N 43°33' E 010°18'0 0.0
2016-Apr-28 06:34N 43°33' E 010°18'0 0.0
2016-Apr-28 05:31N 43°33' E 010°18'1 0.7
2016-Apr-28 04:33N 43°33' E 010°17'8 7.9
2016-Apr-28 03:34N 43°26' E 010°12'1616.0
2016-Apr-28 02:34N 43°10' E 010°07'1816.5
2016-Apr-28 01:28N 42°53' E 009°60'195 6.7
2016-Apr-26 20:33N 40°43' E 013°14'1716.6
2016-Apr-26 19:33N 40°40' E 013°36'1616.6
2016-Apr-26 18:33N 40°38' E 013°57'1615.9
2016-Apr-26 17:33N 40°47' E 014°15'4 0.3
2016-Apr-26 04:30N 40°50' E 014°16'6 6.1
2016-Apr-26 03:33N 40°45' E 014°13'  
Track history (hours):
 
Tides and Currents Weather Stations Pressure Air Temp Water Temp Dewpoint Dewpoint Depression Visibility Wind Speed Wind Dir Waves Ship Positions

Norwegian Epic

Last reported at 2016-May-06 03:33 UTC. Time now 2016-May-06 03:38 UTC.
Position N 43°28' E 007°20'.

Length 329 m; draft 9.3 m.

Type: Passenger vessel. MMSI: 311018500.

Date/timePositionNaut miles runAvg speedWind from/ knotsBaromVisibWave heightAir tempDewpointWater temp
2016-May-06 03:33N 43°28' E 007°20'1211.7
2016-May-06 02:33N 43°29' E 007°36'1212.1
2016-May-06 01:33N 43°29' E 007°52'1212.0
2016-May-06 00:34N 43°29' E 008°09'1211.9
2016-May-05 23:33N 43°30' E 008°25'1212.0
2016-May-05 22:33N 43°30' E 008°42'1212.5
2016-May-05 21:34N 43°30' E 008°59'1313.0
2016-May-05 20:33N 43°31' E 009°17'1313.5
2016-May-05 19:34N 43°32' E 009°35'1717.0
2016-May-05 18:34N 43°31' E 009°59'1312.8
2016-May-05 17:33N 43°32' E 010°16'2 1.5
2016-May-05 16:30N 43°33' E 010°18'0 0.0
2016-May-05 15:31N 43°33' E 010°18'0 0.0
2016-May-05 14:32N 43°33' E 010°18'0 0.0
2016-May-05 13:32N 43°33' E 010°18'0 0.0
2016-May-05 12:33N 43°33' E 010°18'0 0.0
2016-May-05 11:25N 43°33' E 010°18'0 0.0
2016-May-05 10:31N 43°33' E 010°18'0 0.0
2016-May-05 09:32N 43°33' E 010°18'0 0.0
2016-May-05 08:33N 43°33' E 010°18'0 0.0
2016-May-05 07:33N 43°33' E 010°18'0 0.0
2016-May-05 06:31N 43°33' E 010°18'0 0.0
2016-May-05 05:32N 43°33' E 010°18'0 0.2
2016-May-05 04:33N 43°33' E 010°18'7 7.2
2016-May-05 03:33N 43°27' E 010°12'1313.0
2016-May-05 02:33N 43°15' E 010°08'1716.6
2016-May-05 01:34N 42°59' E 010°02'1717.0
2016-May-05 00:33N 42°43' E 009°55'1815.2
2016-May-04 23:22N 42°25' E 009°56'1315.8
2016-May-04 22:33N 42°14' E 010°06'1817.2
2016-May-04 21:30N 42°07' E 010°28'  
2016-May-01 21:29N 41°16' E 003°39'1516.2
2016-May-01 20:33N 41°16' E 003°19'1616.1
2016-May-01 19:33N 41°16' E 002°58'1616.2
2016-May-01 18:33N 41°16' E 002°37'1515.1
2016-May-01 17:33N 41°16' E 002°16'7 7.4
2016-May-01 16:33N 41°22' E 002°11'0 0.1
2016-May-01 15:29N 41°22' E 002°11'0 0.0
2016-May-01 03:19N 41°22' E 002°11'5 5.2
2016-May-01 02:20N 41°17' E 002°11'911.1
2016-May-01 01:33N 41°19' E 002°22'16116.1
2016-Apr-30 15:33N 43°07' E 005°03'1716.5
2016-Apr-30 14:31N 43°20' E 005°18'2 0.8
2016-Apr-30 12:19N 43°21' E 005°20'0 0.0
2016-Apr-30 11:32N 43°21' E 005°20'0 0.0
2016-Apr-30 10:29N 43°21' E 005°20'0 0.0
2016-Apr-30 09:27N 43°21' E 005°20'0 0.0
2016-Apr-30 08:25N 43°21' E 005°20'0 0.0
2016-Apr-30 07:23N 43°21' E 005°20'0 0.0
2016-Apr-30 06:32N 43°21' E 005°20'0 0.0
2016-Apr-30 05:33N 43°21' E 005°20'0 0.1
2016-Apr-30 04:33N 43°21' E 005°20'6 5.8
2016-Apr-30 03:33N 43°18' E 005°13'1110.6
2016-Apr-30 02:33N 43°07' E 005°12'1612.1
2016-Apr-30 01:12N 43°01' E 005°33'1310.9
2016-Apr-30 00:00N 42°54' E 005°48'5710.0 140 / 231018.0 5.4 1.013.0 14.0
2016-Apr-29 18:20N 43°10' E 007°02'1013.0
2016-Apr-29 17:33N 43°20' E 007°01'1111.5
2016-Apr-29 16:33N 43°32' E 007°01'1 0.6
2016-Apr-29 15:33N 43°32' E 007°01'0 0.0
2016-Apr-29 14:31N 43°32' E 007°01'0 0.0
2016-Apr-29 13:28N 43°32' E 007°01'0 0.0
2016-Apr-29 12:14N 43°32' E 007°01'0 0.0
2016-Apr-29 11:33N 43°32' E 007°01'0 0.0
2016-Apr-29 10:30N 43°32' E 007°01'0 0.0
2016-Apr-29 09:13N 43°32' E 007°01'0 0.1
2016-Apr-29 08:32N 43°32' E 007°01'0 0.0
2016-Apr-29 07:26N 43°32' E 007°01'0 0.0
2016-Apr-29 06:33N 43°32' E 007°01'0 0.0
2016-Apr-29 05:31N 43°32' E 007°01'5 5.3
2016-Apr-29 04:33N 43°28' E 007°04'1312.9
2016-Apr-29 03:33N 43°28' E 007°22'1313.1
2016-Apr-29 02:33N 43°29' E 007°40'1313.0
2016-Apr-29 01:31N 43°29' E 007°59'1313.2
2016-Apr-29 00:33N 43°29' E 008°16'1313.3
2016-Apr-28 23:33N 43°30' E 008°34'1313.4
2016-Apr-28 22:33N 43°30' E 008°53'1312.9
2016-Apr-28 21:33N 43°30' E 009°11'1312.9
2016-Apr-28 20:33N 43°31' E 009°28'1313.1
2016-Apr-28 19:33N 43°31' E 009°47'1312.8
2016-Apr-28 18:33N 43°30' E 010°04'1010.0
2016-Apr-28 17:33N 43°33' E 010°18'1 0.5
2016-Apr-28 16:33N 43°33' E 010°18'0 0.0
2016-Apr-28 15:33N 43°33' E 010°18'0 0.0
2016-Apr-28 14:31N 43°33' E 010°18'0 0.0
2016-Apr-28 13:32N 43°33' E 010°18'0 0.0
2016-Apr-28 12:33N 43°33' E 010°18'0 0.0
2016-Apr-28 11:33N 43°34' E 010°18'0 0.0
2016-Apr-28 10:28N 43°33' E 010°18'0 0.0
2016-Apr-28 09:32N 43°33' E 010°18'0 0.0
2016-Apr-28 08:32N 43°33' E 010°18'0 0.0
2016-Apr-28 07:33N 43°33' E 010°18'0 0.0
2016-Apr-28 06:34N 43°33' E 010°18'0 0.0
2016-Apr-28 05:31N 43°33' E 010°18'1 0.7
2016-Apr-28 04:33N 43°33' E 010°17'8 7.9
2016-Apr-28 03:34N 43°26' E 010°12'1616.0
2016-Apr-28 02:34N 43°10' E 010°07'1816.5
2016-Apr-28 01:28N 42°53' E 009°60'195 6.7
2016-Apr-26 20:33N 40°43' E 013°14'1716.6
2016-Apr-26 19:33N 40°40' E 013°36'1616.6
2016-Apr-26 18:33N 40°38' E 013°57'1615.9
2016-Apr-26 17:33N 40°47' E 014°15'4 0.3
2016-Apr-26 04:30N 40°50' E 014°16'6 6.1
2016-Apr-26 03:33N 40°45' E 014°13'  

Dump ship's entire track history